sensor_id;sensor_type;location;lat;lon;timestamp;P1;durP1;ratioP1;P2;durP2;ratioP2
49472;SDS011;67434;50.956;6.918;2023-04-03T00:00:01;6.22;;;2.13;;
49472;SDS011;67434;50.956;6.918;2023-04-03T00:02:46;3.10;;;2.38;;
49472;SDS011;67434;50.956;6.918;2023-04-03T00:05:33;2.78;;;1.98;;
49472;SDS011;67434;50.956;6.918;2023-04-03T00:08:18;3.20;;;2.17;;
49472;SDS011;67434;50.956;6.918;2023-04-03T00:11:05;6.05;;;2.10;;
49472;SDS011;67434;50.956;6.918;2023-04-03T00:13:51;4.30;;;2.70;;
49472;SDS011;67434;50.956;6.918;2023-04-03T00:19:22;3.20;;;1.60;;
49472;SDS011;67434;50.956;6.918;2023-04-03T00:24:54;4.13;;;1.88;;
49472;SDS011;67434;50.956;6.918;2023-04-03T00:27:40;5.10;;;2.50;;
49472;SDS011;67434;50.956;6.918;2023-04-03T00:30:26;3.80;;;2.30;;
49472;SDS011;67434;50.956;6.918;2023-04-03T00:33:12;5.78;;;2.92;;
49472;SDS011;67434;50.956;6.918;2023-04-03T00:35:58;4.90;;;3.03;;
49472;SDS011;67434;50.956;6.918;2023-04-03T00:38:44;4.80;;;2.88;;
49472;SDS011;67434;50.956;6.918;2023-04-03T00:44:21;6.47;;;2.97;;
49472;SDS011;67434;50.956;6.918;2023-04-03T00:47:11;4.97;;;2.60;;
49472;SDS011;67434;50.956;6.918;2023-04-03T00:50:02;3.85;;;2.50;;
49472;SDS011;67434;50.956;6.918;2023-04-03T00:52:49;4.95;;;2.92;;
49472;SDS011;67434;50.956;6.918;2023-04-03T00:55:36;4.90;;;2.88;;
49472;SDS011;67434;50.956;6.918;2023-04-03T00:58:26;4.75;;;3.17;;
49472;SDS011;67434;50.956;6.918;2023-04-03T01:01:20;7.00;;;3.13;;
49472;SDS011;67434;50.956;6.918;2023-04-03T01:04:26;5.20;;;3.03;;
49472;SDS011;67434;50.956;6.918;2023-04-03T01:07:31;3.85;;;3.38;;
49472;SDS011;67434;50.956;6.918;2023-04-03T01:10:18;5.22;;;2.78;;
49472;SDS011;67434;50.956;6.918;2023-04-03T01:13:25;3.90;;;2.20;;
49472;SDS011;67434;50.956;6.918;2023-04-03T01:16:15;5.07;;;2.60;;
49472;SDS011;67434;50.956;6.918;2023-04-03T01:19:01;2.88;;;2.20;;
49472;SDS011;67434;50.956;6.918;2023-04-03T01:21:54;4.28;;;3.00;;
49472;SDS011;67434;50.956;6.918;2023-04-03T01:24:49;7.65;;;2.67;;
49472;SDS011;67434;50.956;6.918;2023-04-03T01:27:36;4.10;;;2.13;;
49472;SDS011;67434;50.956;6.918;2023-04-03T01:33:11;4.50;;;2.45;;
49472;SDS011;67434;50.956;6.918;2023-04-03T01:38:42;4.55;;;2.10;;
49472;SDS011;67434;50.956;6.918;2023-04-03T01:41:28;3.20;;;2.00;;
49472;SDS011;67434;50.956;6.918;2023-04-03T01:44:14;4.28;;;2.17;;
49472;SDS011;67434;50.956;6.918;2023-04-03T01:47:00;7.20;;;3.20;;
49472;SDS011;67434;50.956;6.918;2023-04-03T01:52:32;2.27;;;2.00;;
49472;SDS011;67434;50.956;6.918;2023-04-03T01:58:03;4.00;;;1.90;;
49472;SDS011;67434;50.956;6.918;2023-04-03T02:03:34;6.88;;;2.55;;
49472;SDS011;67434;50.956;6.918;2023-04-03T02:09:05;4.13;;;2.63;;
49472;SDS011;67434;50.956;6.918;2023-04-03T02:11:52;4.63;;;2.45;;
49472;SDS011;67434;50.956;6.918;2023-04-03T02:14:38;3.75;;;3.05;;
49472;SDS011;67434;50.956;6.918;2023-04-03T02:20:09;4.97;;;3.00;;
49472;SDS011;67434;50.956;6.918;2023-04-03T02:22:55;5.03;;;2.85;;
49472;SDS011;67434;50.956;6.918;2023-04-03T02:28:26;4.23;;;3.50;;
49472;SDS011;67434;50.956;6.918;2023-04-03T02:33:58;4.37;;;1.77;;
49472;SDS011;67434;50.956;6.918;2023-04-03T02:39:29;5.15;;;2.88;;
49472;SDS011;67434;50.956;6.918;2023-04-03T02:42:15;4.90;;;2.80;;
49472;SDS011;67434;50.956;6.918;2023-04-03T02:45:00;4.47;;;3.28;;
49472;SDS011;67434;50.956;6.918;2023-04-03T02:47:46;3.05;;;2.58;;
49472;SDS011;67434;50.956;6.918;2023-04-03T02:53:19;6.15;;;3.17;;
49472;SDS011;67434;50.956;6.918;2023-04-03T02:56:05;5.63;;;3.00;;
49472;SDS011;67434;50.956;6.918;2023-04-03T02:58:50;4.50;;;2.80;;
49472;SDS011;67434;50.956;6.918;2023-04-03T03:01:36;4.75;;;3.53;;
49472;SDS011;67434;50.956;6.918;2023-04-03T03:04:22;7.10;;;3.15;;
49472;SDS011;67434;50.956;6.918;2023-04-03T03:09:53;2.77;;;1.80;;
49472;SDS011;67434;50.956;6.918;2023-04-03T03:15:25;3.35;;;2.47;;
49472;SDS011;67434;50.956;6.918;2023-04-03T03:20:59;7.37;;;2.70;;
49472;SDS011;67434;50.956;6.918;2023-04-03T03:23:46;4.88;;;3.00;;
49472;SDS011;67434;50.956;6.918;2023-04-03T03:29:17;2.83;;;2.13;;
49472;SDS011;67434;50.956;6.918;2023-04-03T03:34:49;5.07;;;2.35;;
49472;SDS011;67434;50.956;6.918;2023-04-03T03:37:35;3.08;;;2.50;;
49472;SDS011;67434;50.956;6.918;2023-04-03T03:40:20;4.40;;;2.25;;
49472;SDS011;67434;50.956;6.918;2023-04-03T03:43:06;3.92;;;2.00;;
49472;SDS011;67434;50.956;6.918;2023-04-03T03:45:52;3.85;;;1.95;;
49472;SDS011;67434;50.956;6.918;2023-04-03T03:48:38;4.50;;;2.35;;
49472;SDS011;67434;50.956;6.918;2023-04-03T03:51:26;3.72;;;2.40;;
49472;SDS011;67434;50.956;6.918;2023-04-03T03:54:11;3.97;;;1.60;;
49472;SDS011;67434;50.956;6.918;2023-04-03T03:56:58;2.88;;;1.63;;
49472;SDS011;67434;50.956;6.918;2023-04-03T03:59:44;3.35;;;2.03;;
49472;SDS011;67434;50.956;6.918;2023-04-03T04:02:29;3.13;;;2.17;;
49472;SDS011;67434;50.956;6.918;2023-04-03T04:05:15;3.58;;;2.33;;
49472;SDS011;67434;50.956;6.918;2023-04-03T04:08:01;2.83;;;1.75;;
49472;SDS011;67434;50.956;6.918;2023-04-03T04:13:32;3.07;;;2.00;;
49472;SDS011;67434;50.956;6.918;2023-04-03T04:16:18;5.63;;;2.55;;
49472;SDS011;67434;50.956;6.918;2023-04-03T04:21:51;2.63;;;1.70;;
49472;SDS011;67434;50.956;6.918;2023-04-03T04:27:22;4.83;;;1.80;;
49472;SDS011;67434;50.956;6.918;2023-04-03T04:32:54;3.55;;;1.85;;
49472;SDS011;67434;50.956;6.918;2023-04-03T04:35:41;6.10;;;1.75;;
49472;SDS011;67434;50.956;6.918;2023-04-03T04:38:27;3.90;;;1.83;;
49472;SDS011;67434;50.956;6.918;2023-04-03T04:43:58;2.30;;;1.37;;
49472;SDS011;67434;50.956;6.918;2023-04-03T04:49:30;3.35;;;1.33;;
49472;SDS011;67434;50.956;6.918;2023-04-03T04:52:15;3.40;;;1.80;;
49472;SDS011;67434;50.956;6.918;2023-04-03T04:55:01;4.93;;;1.50;;
49472;SDS011;67434;50.956;6.918;2023-04-03T04:57:47;3.22;;;1.48;;
49472;SDS011;67434;50.956;6.918;2023-04-03T05:00:32;3.10;;;1.55;;
49472;SDS011;67434;50.956;6.918;2023-04-03T05:06:04;1.70;;;1.10;;
49472;SDS011;67434;50.956;6.918;2023-04-03T05:08:50;4.78;;;1.50;;
49472;SDS011;67434;50.956;6.918;2023-04-03T05:11:35;3.17;;;1.60;;
49472;SDS011;67434;50.956;6.918;2023-04-03T05:14:21;2.63;;;1.58;;
49472;SDS011;67434;50.956;6.918;2023-04-03T05:17:07;3.65;;;1.55;;
49472;SDS011;67434;50.956;6.918;2023-04-03T05:22:38;5.33;;;1.87;;
49472;SDS011;67434;50.956;6.918;2023-04-03T05:25:24;4.50;;;1.42;;
49472;SDS011;67434;50.956;6.918;2023-04-03T05:28:10;6.20;;;1.80;;
49472;SDS011;67434;50.956;6.918;2023-04-03T05:30:56;2.10;;;1.17;;
49472;SDS011;67434;50.956;6.918;2023-04-03T05:33:43;2.70;;;1.33;;
49472;SDS011;67434;50.956;6.918;2023-04-03T05:36:28;2.40;;;1.27;;
49472;SDS011;67434;50.956;6.918;2023-04-03T05:39:14;3.53;;;1.40;;
49472;SDS011;67434;50.956;6.918;2023-04-03T05:42:00;3.20;;;1.58;;
49472;SDS011;67434;50.956;6.918;2023-04-03T05:47:32;5.20;;;2.45;;
49472;SDS011;67434;50.956;6.918;2023-04-03T05:50:18;4.72;;;1.90;;
49472;SDS011;67434;50.956;6.918;2023-04-03T05:53:03;8.93;;;1.70;;
49472;SDS011;67434;50.956;6.918;2023-04-03T05:55:50;3.67;;;1.67;;
49472;SDS011;67434;50.956;6.918;2023-04-03T05:58:36;6.22;;;1.55;;
49472;SDS011;67434;50.956;6.918;2023-04-03T06:04:07;7.93;;;2.53;;
49472;SDS011;67434;50.956;6.918;2023-04-03T06:06:56;6.88;;;2.90;;
49472;SDS011;67434;50.956;6.918;2023-04-03T06:09:45;8.57;;;2.03;;
49472;SDS011;67434;50.956;6.918;2023-04-03T06:12:31;3.72;;;1.65;;
49472;SDS011;67434;50.956;6.918;2023-04-03T06:18:02;3.45;;;1.58;;
49472;SDS011;67434;50.956;6.918;2023-04-03T06:20:48;2.65;;;1.23;;
49472;SDS011;67434;50.956;6.918;2023-04-03T06:26:20;3.03;;;1.90;;
49472;SDS011;67434;50.956;6.918;2023-04-03T06:29:06;3.20;;;1.20;;
49472;SDS011;67434;50.956;6.918;2023-04-03T06:31:52;1.75;;;0.80;;
49472;SDS011;67434;50.956;6.918;2023-04-03T06:34:38;3.15;;;1.40;;
49472;SDS011;67434;50.956;6.918;2023-04-03T06:40:14;4.53;;;2.05;;
49472;SDS011;67434;50.956;6.918;2023-04-03T06:43:04;7.22;;;2.05;;
49472;SDS011;67434;50.956;6.918;2023-04-03T06:45:50;4.10;;;1.27;;
49472;SDS011;67434;50.956;6.918;2023-04-03T06:51:23;3.22;;;1.10;;
49472;SDS011;67434;50.956;6.918;2023-04-03T06:54:12;3.80;;;1.65;;
49472;SDS011;67434;50.956;6.918;2023-04-03T06:57:00;2.28;;;1.13;;
49472;SDS011;67434;50.956;6.918;2023-04-03T06:59:45;1.55;;;1.00;;
49472;SDS011;67434;50.956;6.918;2023-04-03T07:05:17;6.07;;;1.50;;
49472;SDS011;67434;50.956;6.918;2023-04-03T07:08:03;4.50;;;1.50;;
49472;SDS011;67434;50.956;6.918;2023-04-03T07:10:49;4.53;;;1.58;;
49472;SDS011;67434;50.956;6.918;2023-04-03T07:13:35;2.35;;;1.10;;
49472;SDS011;67434;50.956;6.918;2023-04-03T07:16:21;3.10;;;0.80;;
49472;SDS011;67434;50.956;6.918;2023-04-03T07:19:07;1.95;;;0.80;;
49472;SDS011;67434;50.956;6.918;2023-04-03T07:21:53;2.50;;;0.80;;
49472;SDS011;67434;50.956;6.918;2023-04-03T07:24:40;3.47;;;0.82;;
49472;SDS011;67434;50.956;6.918;2023-04-03T07:27:25;3.53;;;0.75;;
49472;SDS011;67434;50.956;6.918;2023-04-03T07:30:11;2.53;;;1.02;;
49472;SDS011;67434;50.956;6.918;2023-04-03T07:32:59;3.83;;;0.80;;
49472;SDS011;67434;50.956;6.918;2023-04-03T07:35:45;3.95;;;0.70;;
49472;SDS011;67434;50.956;6.918;2023-04-03T07:38:32;3.20;;;0.95;;
49472;SDS011;67434;50.956;6.918;2023-04-03T07:41:19;3.38;;;0.60;;
49472;SDS011;67434;50.956;6.918;2023-04-03T07:44:07;2.33;;;1.23;;
49472;SDS011;67434;50.956;6.918;2023-04-03T07:46:55;3.63;;;1.08;;
49472;SDS011;67434;50.956;6.918;2023-04-03T07:49:41;2.08;;;0.90;;
49472;SDS011;67434;50.956;6.918;2023-04-03T07:52:27;1.23;;;0.68;;
49472;SDS011;67434;50.956;6.918;2023-04-03T07:57:58;1.83;;;0.70;;
49472;SDS011;67434;50.956;6.918;2023-04-03T08:03:29;4.82;;;1.10;;
49472;SDS011;67434;50.956;6.918;2023-04-03T08:06:15;4.35;;;1.65;;
49472;SDS011;67434;50.956;6.918;2023-04-03T08:09:01;4.53;;;0.85;;
49472;SDS011;67434;50.956;6.918;2023-04-03T08:11:49;6.70;;;1.00;;
49472;SDS011;67434;50.956;6.918;2023-04-03T08:14:38;2.45;;;0.60;;
49472;SDS011;67434;50.956;6.918;2023-04-03T08:20:09;4.60;;;0.67;;
49472;SDS011;67434;50.956;6.918;2023-04-03T08:22:55;2.65;;;0.60;;
49472;SDS011;67434;50.956;6.918;2023-04-03T08:25:41;5.60;;;1.02;;
49472;SDS011;67434;50.956;6.918;2023-04-03T08:28:27;1.77;;;0.70;;
49472;SDS011;67434;50.956;6.918;2023-04-03T08:31:14;1.35;;;0.90;;
49472;SDS011;67434;50.956;6.918;2023-04-03T08:34:02;3.17;;;0.60;;
49472;SDS011;67434;50.956;6.918;2023-04-03T08:39:33;2.50;;;0.68;;
49472;SDS011;67434;50.956;6.918;2023-04-03T08:42:41;1.38;;;0.57;;
49472;SDS011;67434;50.956;6.918;2023-04-03T08:48:34;2.60;;;0.73;;
49472;SDS011;67434;50.956;6.918;2023-04-03T08:51:24;2.58;;;0.98;;
49472;SDS011;67434;50.956;6.918;2023-04-03T08:54:16;1.83;;;0.60;;
49472;SDS011;67434;50.956;6.918;2023-04-03T08:57:10;3.70;;;0.77;;
49472;SDS011;67434;50.956;6.918;2023-04-03T08:59:58;2.90;;;0.65;;
49472;SDS011;67434;50.956;6.918;2023-04-03T09:02:51;2.58;;;0.75;;
49472;SDS011;67434;50.956;6.918;2023-04-03T09:05:43;4.80;;;0.93;;
49472;SDS011;67434;50.956;6.918;2023-04-03T09:11:50;1.37;;;0.40;;
49472;SDS011;67434;50.956;6.918;2023-04-03T09:21:11;2.42;;;0.70;;
49472;SDS011;67434;50.956;6.918;2023-04-03T09:24:12;3.13;;;0.60;;
49472;SDS011;67434;50.956;6.918;2023-04-03T09:27:04;1.63;;;0.63;;
49472;SDS011;67434;50.956;6.918;2023-04-03T09:29:53;2.30;;;0.73;;
49472;SDS011;67434;50.956;6.918;2023-04-03T09:32:41;3.45;;;0.25;;
49472;SDS011;67434;50.956;6.918;2023-04-03T09:35:28;3.10;;;0.60;;
49472;SDS011;67434;50.956;6.918;2023-04-03T09:38:20;1.08;;;0.40;;
49472;SDS011;67434;50.956;6.918;2023-04-03T09:41:12;3.95;;;0.80;;
49472;SDS011;67434;50.956;6.918;2023-04-03T09:44:01;2.67;;;0.80;;
49472;SDS011;67434;50.956;6.918;2023-04-03T09:49:32;2.72;;;0.43;;
49472;SDS011;67434;50.956;6.918;2023-04-03T09:55:14;1.92;;;0.63;;
49472;SDS011;67434;50.956;6.918;2023-04-03T09:58:01;4.25;;;0.40;;
49472;SDS011;67434;50.956;6.918;2023-04-03T10:00:56;3.03;;;0.50;;
49472;SDS011;67434;50.956;6.918;2023-04-03T10:03:44;2.83;;;0.40;;
49472;SDS011;67434;50.956;6.918;2023-04-03T10:06:29;3.85;;;1.05;;
49472;SDS011;67434;50.956;6.918;2023-04-03T10:09:21;0.80;;;0.28;;
49472;SDS011;67434;50.956;6.918;2023-04-03T10:12:13;1.30;;;0.30;;
49472;SDS011;67434;50.956;6.918;2023-04-03T10:15:11;1.65;;;0.57;;
49472;SDS011;67434;50.956;6.918;2023-04-03T10:18:02;2.72;;;0.35;;
49472;SDS011;67434;50.956;6.918;2023-04-03T10:21:05;2.05;;;0.40;;
49472;SDS011;67434;50.956;6.918;2023-04-03T10:23:57;1.27;;;0.30;;
49472;SDS011;67434;50.956;6.918;2023-04-03T10:27:01;2.13;;;0.43;;
49472;SDS011;67434;50.956;6.918;2023-04-03T10:39:28;4.50;;;0.45;;
49472;SDS011;67434;50.956;6.918;2023-04-03T10:45:53;1.23;;;0.32;;
49472;SDS011;67434;50.956;6.918;2023-04-03T11:01:07;2.22;;;0.28;;
49472;SDS011;67434;50.956;6.918;2023-04-03T11:03:56;1.40;;;0.28;;
49472;SDS011;67434;50.956;6.918;2023-04-03T11:06:48;1.05;;;0.30;;
49472;SDS011;67434;50.956;6.918;2023-04-03T11:09:42;0.77;;;0.25;;
49472;SDS011;67434;50.956;6.918;2023-04-03T11:12:41;0.95;;;0.50;;
49472;SDS011;67434;50.956;6.918;2023-04-03T11:15:30;3.03;;;0.40;;
49472;SDS011;67434;50.956;6.918;2023-04-03T11:18:22;1.23;;;0.80;;
49472;SDS011;67434;50.956;6.918;2023-04-03T11:21:17;2.67;;;0.40;;
49472;SDS011;67434;50.956;6.918;2023-04-03T11:24:11;1.75;;;0.40;;
49472;SDS011;67434;50.956;6.918;2023-04-03T11:27:08;0.50;;;0.20;;
49472;SDS011;67434;50.956;6.918;2023-04-03T11:30:02;1.95;;;0.40;;
49472;SDS011;67434;50.956;6.918;2023-04-03T11:36:09;1.70;;;0.32;;
49472;SDS011;67434;50.956;6.918;2023-04-03T11:39:08;0.90;;;0.30;;
49472;SDS011;67434;50.956;6.918;2023-04-03T11:45:16;3.42;;;0.40;;
49472;SDS011;67434;50.956;6.918;2023-04-03T11:57:42;2.85;;;0.90;;
49472;SDS011;67434;50.956;6.918;2023-04-03T12:10:14;1.33;;;0.40;;
49472;SDS011;67434;50.956;6.918;2023-04-03T12:12:29;0.45;;;0.30;;
49472;SDS011;67434;50.956;6.918;2023-04-03T12:15:22;1.13;;;0.50;;
49472;SDS011;67434;50.956;6.918;2023-04-03T12:35:40;2.65;;;0.30;;
49472;SDS011;67434;50.956;6.918;2023-04-03T12:38:55;3.15;;;0.45;;
49472;SDS011;67434;50.956;6.918;2023-04-03T12:41:58;3.80;;;0.60;;
49472;SDS011;67434;50.956;6.918;2023-04-03T12:44:52;4.75;;;1.30;;
49472;SDS011;67434;50.956;6.918;2023-04-03T12:47:48;2.90;;;0.60;;
49472;SDS011;67434;50.956;6.918;2023-04-03T12:50:36;4.95;;;0.80;;
49472;SDS011;67434;50.956;6.918;2023-04-03T12:53:23;3.55;;;0.80;;
49472;SDS011;67434;50.956;6.918;2023-04-03T12:56:29;2.03;;;0.55;;
49472;SDS011;67434;50.956;6.918;2023-04-03T12:59:20;3.33;;;0.55;;
49472;SDS011;67434;50.956;6.918;2023-04-03T13:02:23;1.27;;;0.30;;
49472;SDS011;67434;50.956;6.918;2023-04-03T13:05:09;1.25;;;0.50;;
49472;SDS011;67434;50.956;6.918;2023-04-03T13:08:04;2.25;;;0.50;;
49472;SDS011;67434;50.956;6.918;2023-04-03T13:11:01;3.03;;;1.02;;
49472;SDS011;67434;50.956;6.918;2023-04-03T13:13:55;2.15;;;0.50;;
49472;SDS011;67434;50.956;6.918;2023-04-03T13:16:41;1.15;;;0.50;;
49472;SDS011;67434;50.956;6.918;2023-04-03T13:19:37;3.00;;;0.38;;
49472;SDS011;67434;50.956;6.918;2023-04-03T13:22:34;1.95;;;0.40;;
49472;SDS011;67434;50.956;6.918;2023-04-03T13:25:30;3.45;;;0.55;;
49472;SDS011;67434;50.956;6.918;2023-04-03T13:28:20;0.50;;;0.32;;
49472;SDS011;67434;50.956;6.918;2023-04-03T13:34:06;0.85;;;0.32;;
49472;SDS011;67434;50.956;6.918;2023-04-03T13:36:57;2.67;;;1.27;;
49472;SDS011;67434;50.956;6.918;2023-04-03T13:39:45;3.00;;;1.55;;
49472;SDS011;67434;50.956;6.918;2023-04-03T13:42:31;1.13;;;0.63;;
49472;SDS011;67434;50.956;6.918;2023-04-03T13:45:23;2.95;;;0.45;;
49472;SDS011;67434;50.956;6.918;2023-04-03T13:48:17;2.50;;;0.65;;
49472;SDS011;67434;50.956;6.918;2023-04-03T13:51:07;0.82;;;0.40;;
49472;SDS011;67434;50.956;6.918;2023-04-03T13:54:32;2.50;;;0.80;;
49472;SDS011;67434;50.956;6.918;2023-04-03T13:57:20;1.70;;;0.93;;
49472;SDS011;67434;50.956;6.918;2023-04-03T14:00:21;1.88;;;0.52;;
49472;SDS011;67434;50.956;6.918;2023-04-03T14:03:19;4.25;;;0.95;;
49472;SDS011;67434;50.956;6.918;2023-04-03T14:06:08;1.15;;;0.38;;
49472;SDS011;67434;50.956;6.918;2023-04-03T14:08:56;1.92;;;0.90;;
49472;SDS011;67434;50.956;6.918;2023-04-03T14:11:42;1.58;;;0.70;;
49472;SDS011;67434;50.956;6.918;2023-04-03T14:14:30;3.63;;;0.73;;
49472;SDS011;67434;50.956;6.918;2023-04-03T14:17:19;3.20;;;0.40;;
49472;SDS011;67434;50.956;6.918;2023-04-03T14:20:10;0.85;;;0.40;;
49472;SDS011;67434;50.956;6.918;2023-04-03T14:23:00;2.35;;;0.70;;
49472;SDS011;67434;50.956;6.918;2023-04-03T14:25:45;1.05;;;0.55;;
49472;SDS011;67434;50.956;6.918;2023-04-03T14:28:31;1.42;;;0.70;;
49472;SDS011;67434;50.956;6.918;2023-04-03T14:31:18;2.63;;;1.40;;
49472;SDS011;67434;50.956;6.918;2023-04-03T14:34:04;4.05;;;0.70;;
49472;SDS011;67434;50.956;6.918;2023-04-03T14:36:50;4.50;;;0.77;;
49472;SDS011;67434;50.956;6.918;2023-04-03T14:39:37;3.88;;;1.35;;
49472;SDS011;67434;50.956;6.918;2023-04-03T14:42:25;3.45;;;1.15;;
49472;SDS011;67434;50.956;6.918;2023-04-03T14:45:14;5.75;;;1.65;;
49472;SDS011;67434;50.956;6.918;2023-04-03T14:48:02;3.80;;;1.60;;
49472;SDS011;67434;50.956;6.918;2023-04-03T14:50:49;2.67;;;1.45;;
49472;SDS011;67434;50.956;6.918;2023-04-03T14:53:36;4.07;;;1.10;;
49472;SDS011;67434;50.956;6.918;2023-04-03T14:56:23;1.85;;;0.65;;
49472;SDS011;67434;50.956;6.918;2023-04-03T14:59:12;2.08;;;0.70;;
49472;SDS011;67434;50.956;6.918;2023-04-03T15:01:59;2.20;;;0.55;;
49472;SDS011;67434;50.956;6.918;2023-04-03T15:04:45;1.30;;;0.45;;
49472;SDS011;67434;50.956;6.918;2023-04-03T15:07:38;1.02;;;0.47;;
49472;SDS011;67434;50.956;6.918;2023-04-03T15:10:26;2.05;;;0.47;;
49472;SDS011;67434;50.956;6.918;2023-04-03T15:13:14;2.72;;;0.65;;
49472;SDS011;67434;50.956;6.918;2023-04-03T15:16:00;2.65;;;0.90;;
49472;SDS011;67434;50.956;6.918;2023-04-03T15:18:46;1.27;;;0.50;;
49472;SDS011;67434;50.956;6.918;2023-04-03T15:21:32;2.63;;;0.75;;
49472;SDS011;67434;50.956;6.918;2023-04-03T15:24:18;1.75;;;0.60;;
49472;SDS011;67434;50.956;6.918;2023-04-03T15:27:03;0.50;;;0.38;;
49472;SDS011;67434;50.956;6.918;2023-04-03T15:29:49;3.03;;;0.70;;
49472;SDS011;67434;50.956;6.918;2023-04-03T15:32:35;1.17;;;0.60;;
49472;SDS011;67434;50.956;6.918;2023-04-03T15:35:20;4.45;;;0.50;;
49472;SDS011;67434;50.956;6.918;2023-04-03T15:38:07;3.05;;;1.00;;
49472;SDS011;67434;50.956;6.918;2023-04-03T15:40:53;3.20;;;0.98;;
49472;SDS011;67434;50.956;6.918;2023-04-03T15:43:40;3.28;;;0.52;;
49472;SDS011;67434;50.956;6.918;2023-04-03T15:46:26;3.47;;;0.52;;
49472;SDS011;67434;50.956;6.918;2023-04-03T15:49:12;2.08;;;0.63;;
49472;SDS011;67434;50.956;6.918;2023-04-03T15:51:58;1.10;;;0.45;;
49472;SDS011;67434;50.956;6.918;2023-04-03T15:54:43;2.13;;;0.50;;
49472;SDS011;67434;50.956;6.918;2023-04-03T15:57:29;1.50;;;0.50;;
49472;SDS011;67434;50.956;6.918;2023-04-03T16:00:15;3.20;;;0.68;;
49472;SDS011;67434;50.956;6.918;2023-04-03T16:03:04;2.30;;;0.57;;
49472;SDS011;67434;50.956;6.918;2023-04-03T16:05:53;2.92;;;0.90;;
49472;SDS011;67434;50.956;6.918;2023-04-03T16:08:39;2.72;;;1.00;;
49472;SDS011;67434;50.956;6.918;2023-04-03T16:11:25;1.98;;;0.65;;
49472;SDS011;67434;50.956;6.918;2023-04-03T16:14:11;1.70;;;0.70;;
49472;SDS011;67434;50.956;6.918;2023-04-03T16:16:57;4.57;;;0.70;;
49472;SDS011;67434;50.956;6.918;2023-04-03T16:19:44;1.35;;;0.82;;
49472;SDS011;67434;50.956;6.918;2023-04-03T16:22:29;5.00;;;2.17;;
49472;SDS011;67434;50.956;6.918;2023-04-03T16:25:15;3.88;;;1.92;;
49472;SDS011;67434;50.956;6.918;2023-04-03T16:28:02;4.88;;;1.33;;
49472;SDS011;67434;50.956;6.918;2023-04-03T16:30:48;2.70;;;0.75;;
49472;SDS011;67434;50.956;6.918;2023-04-03T16:33:34;2.25;;;0.77;;
49472;SDS011;67434;50.956;6.918;2023-04-03T16:36:21;2.67;;;1.10;;
49472;SDS011;67434;50.956;6.918;2023-04-03T16:39:07;3.83;;;1.27;;
49472;SDS011;67434;50.956;6.918;2023-04-03T16:41:55;3.72;;;1.02;;
49472;SDS011;67434;50.956;6.918;2023-04-03T16:44:40;2.97;;;1.38;;
49472;SDS011;67434;50.956;6.918;2023-04-03T16:47:26;4.72;;;1.15;;
49472;SDS011;67434;50.956;6.918;2023-04-03T16:50:12;1.75;;;0.73;;
49472;SDS011;67434;50.956;6.918;2023-04-03T16:52:58;4.47;;;1.17;;
49472;SDS011;67434;50.956;6.918;2023-04-03T16:55:44;3.15;;;0.77;;
49472;SDS011;67434;50.956;6.918;2023-04-03T16:58:29;5.10;;;1.45;;
49472;SDS011;67434;50.956;6.918;2023-04-03T17:01:16;4.05;;;1.85;;
49472;SDS011;67434;50.956;6.918;2023-04-03T17:04:04;8.27;;;3.90;;
49472;SDS011;67434;50.956;6.918;2023-04-03T17:06:50;9.43;;;5.70;;
49472;SDS011;67434;50.956;6.918;2023-04-03T17:09:37;7.07;;;2.47;;
49472;SDS011;67434;50.956;6.918;2023-04-03T17:12:23;5.35;;;3.05;;
49472;SDS011;67434;50.956;6.918;2023-04-03T17:15:09;3.75;;;2.03;;
49472;SDS011;67434;50.956;6.918;2023-04-03T17:17:57;8.95;;;2.53;;
49472;SDS011;67434;50.956;6.918;2023-04-03T17:20:43;6.80;;;2.08;;
49472;SDS011;67434;50.956;6.918;2023-04-03T17:23:28;5.90;;;1.90;;
49472;SDS011;67434;50.956;6.918;2023-04-03T17:26:15;2.58;;;1.30;;
49472;SDS011;67434;50.956;6.918;2023-04-03T17:29:00;5.05;;;2.10;;
49472;SDS011;67434;50.956;6.918;2023-04-03T17:31:46;3.97;;;1.67;;
49472;SDS011;67434;50.956;6.918;2023-04-03T17:34:32;7.00;;;2.53;;
49472;SDS011;67434;50.956;6.918;2023-04-03T17:37:18;5.88;;;2.30;;
49472;SDS011;67434;50.956;6.918;2023-04-03T17:40:03;4.53;;;1.98;;
49472;SDS011;67434;50.956;6.918;2023-04-03T17:42:50;8.80;;;2.78;;
49472;SDS011;67434;50.956;6.918;2023-04-03T17:45:35;9.38;;;3.55;;
49472;SDS011;67434;50.956;6.918;2023-04-03T17:48:21;8.77;;;3.20;;
49472;SDS011;67434;50.956;6.918;2023-04-03T17:53:57;10.82;;;2.95;;
49472;SDS011;67434;50.956;6.918;2023-04-03T17:56:42;15.55;;;5.78;;
49472;SDS011;67434;50.956;6.918;2023-04-03T17:59:32;14.32;;;4.07;;
49472;SDS011;67434;50.956;6.918;2023-04-03T18:05:03;20.30;;;6.77;;
49472;SDS011;67434;50.956;6.918;2023-04-03T18:07:49;23.67;;;8.55;;
49472;SDS011;67434;50.956;6.918;2023-04-03T18:10:37;21.25;;;7.05;;
49472;SDS011;67434;50.956;6.918;2023-04-03T18:13:23;20.55;;;8.93;;
49472;SDS011;67434;50.956;6.918;2023-04-03T18:16:09;33.40;;;9.93;;
49472;SDS011;67434;50.956;6.918;2023-04-03T18:18:57;28.92;;;10.25;;
49472;SDS011;67434;50.956;6.918;2023-04-03T18:21:42;20.88;;;6.75;;
49472;SDS011;67434;50.956;6.918;2023-04-03T18:24:33;21.90;;;6.85;;
49472;SDS011;67434;50.956;6.918;2023-04-03T18:27:20;5.57;;;2.58;;
49472;SDS011;67434;50.956;6.918;2023-04-03T18:30:11;2.50;;;1.17;;
49472;SDS011;67434;50.956;6.918;2023-04-03T18:32:59;10.68;;;2.72;;
49472;SDS011;67434;50.956;6.918;2023-04-03T18:35:45;6.60;;;2.25;;
49472;SDS011;67434;50.956;6.918;2023-04-03T18:41:16;6.50;;;1.30;;
49472;SDS011;67434;50.956;6.918;2023-04-03T18:44:03;6.10;;;2.17;;
49472;SDS011;67434;50.956;6.918;2023-04-03T18:46:54;4.85;;;2.10;;
49472;SDS011;67434;50.956;6.918;2023-04-03T18:49:43;6.18;;;2.65;;
49472;SDS011;67434;50.956;6.918;2023-04-03T18:52:29;5.40;;;1.83;;
49472;SDS011;67434;50.956;6.918;2023-04-03T18:55:18;5.05;;;0.98;;
49472;SDS011;67434;50.956;6.918;2023-04-03T18:58:04;5.43;;;1.52;;
49472;SDS011;67434;50.956;6.918;2023-04-03T19:00:50;3.50;;;1.35;;
49472;SDS011;67434;50.956;6.918;2023-04-03T19:03:36;5.07;;;2.28;;
49472;SDS011;67434;50.956;6.918;2023-04-03T19:06:22;3.85;;;1.13;;
49472;SDS011;67434;50.956;6.918;2023-04-03T19:09:07;3.00;;;1.30;;
49472;SDS011;67434;50.956;6.918;2023-04-03T19:11:53;5.97;;;1.60;;
49472;SDS011;67434;50.956;6.918;2023-04-03T19:14:39;3.47;;;1.20;;
49472;SDS011;67434;50.956;6.918;2023-04-03T19:17:25;4.68;;;1.30;;
49472;SDS011;67434;50.956;6.918;2023-04-03T19:20:13;1.73;;;1.02;;
49472;SDS011;67434;50.956;6.918;2023-04-03T19:22:58;3.70;;;1.00;;
49472;SDS011;67434;50.956;6.918;2023-04-03T19:28:30;2.33;;;0.75;;
49472;SDS011;67434;50.956;6.918;2023-04-03T19:31:16;3.97;;;1.00;;
49472;SDS011;67434;50.956;6.918;2023-04-03T19:34:05;2.63;;;1.00;;
49472;SDS011;67434;50.956;6.918;2023-04-03T19:36:52;1.13;;;0.77;;
49472;SDS011;67434;50.956;6.918;2023-04-03T19:39:38;2.50;;;0.80;;
49472;SDS011;67434;50.956;6.918;2023-04-03T19:42:26;4.40;;;0.80;;
49472;SDS011;67434;50.956;6.918;2023-04-03T19:45:13;3.38;;;1.05;;
49472;SDS011;67434;50.956;6.918;2023-04-03T19:48:00;2.17;;;0.65;;
49472;SDS011;67434;50.956;6.918;2023-04-03T19:50:46;1.65;;;0.75;;
49472;SDS011;67434;50.956;6.918;2023-04-03T19:53:32;5.43;;;1.00;;
49472;SDS011;67434;50.956;6.918;2023-04-03T19:56:17;2.47;;;0.90;;
49472;SDS011;67434;50.956;6.918;2023-04-03T19:59:05;3.53;;;0.98;;
49472;SDS011;67434;50.956;6.918;2023-04-03T20:04:37;3.10;;;0.70;;
49472;SDS011;67434;50.956;6.918;2023-04-03T20:07:23;3.20;;;0.90;;
49472;SDS011;67434;50.956;6.918;2023-04-03T20:10:09;4.15;;;1.00;;
49472;SDS011;67434;50.956;6.918;2023-04-03T20:12:56;3.63;;;0.68;;
49472;SDS011;67434;50.956;6.918;2023-04-03T20:15:43;3.45;;;0.73;;
49472;SDS011;67434;50.956;6.918;2023-04-03T20:18:29;3.45;;;0.68;;
49472;SDS011;67434;50.956;6.918;2023-04-03T20:21:15;3.33;;;1.25;;